createdAt,value
2023-03-17T00:01:57.693Z,4.64
2023-03-17T00:04:26.727Z,4.60
2023-03-17T00:06:55.104Z,4.61
2023-03-17T00:09:23.324Z,4.56
2023-03-17T00:11:51.421Z,4.52
2023-03-17T00:14:19.629Z,4.53
2023-03-17T00:16:49.811Z,4.50
2023-03-17T00:19:20.834Z,4.52
2023-03-17T00:21:48.650Z,4.52
2023-03-17T00:24:17.288Z,4.51
2023-03-17T00:26:45.208Z,4.51
2023-03-17T00:29:13.375Z,4.49
2023-03-17T00:31:41.321Z,4.50
2023-03-17T00:34:12.248Z,4.44
2023-03-17T00:36:41.623Z,4.46
2023-03-17T00:41:40.894Z,4.31
2023-03-17T00:44:08.740Z,4.41
2023-03-17T00:46:38.449Z,4.36
2023-03-17T00:51:45.981Z,4.35
2023-03-17T00:54:15.565Z,4.40
2023-03-17T00:56:44.297Z,4.39
2023-03-17T00:59:19.531Z,4.41
2023-03-17T01:01:47.707Z,4.41
2023-03-17T01:04:15.760Z,4.44
2023-03-17T01:06:44.947Z,4.43
2023-03-17T01:09:14.796Z,4.44
2023-03-17T01:11:42.712Z,4.42
2023-03-17T01:14:13.969Z,4.40
2023-03-17T01:16:41.910Z,4.36
2023-03-17T01:19:10.943Z,4.39
2023-03-17T01:21:38.713Z,4.38
2023-03-17T01:24:09.613Z,4.40
2023-03-17T01:26:37.596Z,4.41
2023-03-17T01:29:06.401Z,4.39
2023-03-17T01:31:34.308Z,4.38
2023-03-17T01:34:02.633Z,4.36
2023-03-17T01:36:30.382Z,4.36
2023-03-17T01:38:58.656Z,4.35
2023-03-17T01:41:27.931Z,4.35
2023-03-17T01:43:55.686Z,4.34
2023-03-17T01:46:29.277Z,4.31
2023-03-17T01:49:10.236Z,4.31
2023-03-17T01:51:40.818Z,4.28
2023-03-17T01:54:11.387Z,4.25
2023-03-17T01:56:43.296Z,4.27
2023-03-17T01:59:15.850Z,4.21
2023-03-17T02:01:47.152Z,4.26
2023-03-17T02:04:16.219Z,4.22
2023-03-17T02:06:57.572Z,4.22
2023-03-17T02:09:26.984Z,4.20
2023-03-17T02:11:56.709Z,4.20
2023-03-17T02:14:25.618Z,4.13
2023-03-17T02:16:53.577Z,4.16
2023-03-17T02:19:21.600Z,4.15
2023-03-17T02:21:51.986Z,3.95
2023-03-17T02:24:27.501Z,4.13
2023-03-17T02:26:57.109Z,4.12
2023-03-17T02:29:25.316Z,4.19
2023-03-17T02:31:53.453Z,4.24
2023-03-17T02:34:22.568Z,4.26
2023-03-17T02:36:51.750Z,4.27
2023-03-17T02:39:19.610Z,4.31
2023-03-17T02:41:47.544Z,4.32
2023-03-17T02:44:15.263Z,4.29
2023-03-17T02:46:43.466Z,4.25
2023-03-17T02:49:12.409Z,4.03
2023-03-17T02:51:40.240Z,4.16
2023-03-17T02:54:09.520Z,4.11
2023-03-17T02:56:37.293Z,4.06
2023-03-17T02:59:05.375Z,4.05
2023-03-17T03:01:33.923Z,3.99
2023-03-17T03:04:02.266Z,3.96
2023-03-17T03:06:30.076Z,3.93
2023-03-17T03:08:57.847Z,3.89
2023-03-17T03:11:27.950Z,3.88
2023-03-17T03:13:56.183Z,3.85
2023-03-17T03:16:24.005Z,3.83
2023-03-17T03:18:51.769Z,3.86
2023-03-17T03:21:19.959Z,3.84
2023-03-17T03:23:47.708Z,3.85
2023-03-17T03:26:15.545Z,3.81
2023-03-17T03:28:44.686Z,3.80
2023-03-17T03:31:13.982Z,3.78
2023-03-17T03:33:41.867Z,3.78
2023-03-17T03:36:11.376Z,3.76
2023-03-17T03:38:39.204Z,3.77
2023-03-17T03:41:07.426Z,3.76
2023-03-17T03:43:35.359Z,3.77
2023-03-17T03:46:05.684Z,3.75
2023-03-17T03:48:33.704Z,3.77
2023-03-17T03:51:02.929Z,3.75
2023-03-17T03:53:30.874Z,3.71
2023-03-17T03:55:58.662Z,3.73
2023-03-17T03:58:26.447Z,3.72
2023-03-17T04:00:54.222Z,3.69
2023-03-17T04:03:23.376Z,3.65
2023-03-17T04:05:51.276Z,3.66
2023-03-17T04:08:19.086Z,3.64
2023-03-17T04:10:46.820Z,3.63
2023-03-17T04:13:15.444Z,3.62
2023-03-17T04:15:43.275Z,3.55
2023-03-17T04:18:11.619Z,3.56
2023-03-17T04:20:40.743Z,3.53
2023-03-17T04:23:08.858Z,3.52
2023-03-17T04:25:36.732Z,3.49
2023-03-17T04:28:04.701Z,3.46
2023-03-17T04:30:32.761Z,3.49
2023-03-17T04:33:01.138Z,3.48
2023-03-17T04:35:28.991Z,3.47
2023-03-17T04:37:58.115Z,3.51
2023-03-17T04:40:26.578Z,3.50
2023-03-17T04:42:54.369Z,3.50
2023-03-17T04:45:22.160Z,3.49
2023-03-17T04:47:49.945Z,3.41
2023-03-17T04:50:18.111Z,3.40
2023-03-17T04:52:45.901Z,3.36
2023-03-17T04:55:15.586Z,3.34
2023-03-17T04:57:43.358Z,3.31
2023-03-17T05:00:12.904Z,3.29
2023-03-17T05:02:41.224Z,3.27
2023-03-17T05:05:09.949Z,3.27
2023-03-17T05:07:37.732Z,3.25
2023-03-17T05:10:06.608Z,3.25
2023-03-17T05:12:35.903Z,3.25
2023-03-17T05:15:05.429Z,3.24
2023-03-17T05:17:33.214Z,3.25
2023-03-17T05:20:00.969Z,3.23
2023-03-17T05:22:28.774Z,3.21
2023-03-17T05:24:56.511Z,3.21
2023-03-17T05:27:24.504Z,3.24
2023-03-17T05:29:53.678Z,3.25
2023-03-17T05:32:21.479Z,3.23
2023-03-17T05:34:49.987Z,3.19
2023-03-17T05:37:17.800Z,3.17
2023-03-17T05:39:45.584Z,3.14
2023-03-17T05:42:13.911Z,3.10
2023-03-17T05:44:41.728Z,3.10
2023-03-17T05:47:11.213Z,3.10
2023-03-17T05:49:38.953Z,3.07
2023-03-17T05:52:06.842Z,3.09
2023-03-17T05:54:34.700Z,3.16
2023-03-17T05:57:02.943Z,3.21
2023-03-17T05:59:30.823Z,3.25
2023-03-17T06:01:58.711Z,3.28
2023-03-17T06:04:27.951Z,3.35
2023-03-17T06:06:55.759Z,3.45
2023-03-17T06:09:23.558Z,3.52
2023-03-17T06:11:51.342Z,3.57
2023-03-17T06:14:19.549Z,3.65
2023-03-17T06:16:47.330Z,3.75
2023-03-17T06:19:15.147Z,3.83
2023-03-17T06:21:44.403Z,3.92
2023-03-17T06:24:12.534Z,3.95
2023-03-17T06:26:40.462Z,4.08
2023-03-17T06:29:10.031Z,4.04
2023-03-17T06:31:38.055Z,4.27
2023-03-17T06:34:06.024Z,4.42
2023-03-17T06:36:34.149Z,4.51
2023-03-17T06:39:03.513Z,4.62
2023-03-17T06:41:31.419Z,4.71
2023-03-17T06:43:59.200Z,4.82
2023-03-17T06:46:27.151Z,4.92
2023-03-17T06:48:55.018Z,5.05
2023-03-17T06:51:22.809Z,5.18
2023-03-17T06:53:50.587Z,5.25
2023-03-17T06:56:29.441Z,5.32
2023-03-17T06:58:57.590Z,5.49
2023-03-17T07:01:25.551Z,5.61
2023-03-17T07:03:53.333Z,5.73
2023-03-17T07:06:23.324Z,5.80
2023-03-17T07:08:52.384Z,5.86
2023-03-17T07:11:23.614Z,5.96
2023-03-17T07:13:52.083Z,5.92
2023-03-17T07:16:21.038Z,6.02
2023-03-17T07:18:49.879Z,6.16
2023-03-17T07:21:17.729Z,6.24
2023-03-17T07:23:45.518Z,6.24
2023-03-17T07:26:13.298Z,6.24
2023-03-17T07:28:42.502Z,6.28
2023-03-17T07:31:14.171Z,6.29
2023-03-17T07:33:42.644Z,6.40
2023-03-17T07:36:10.928Z,6.52
2023-03-17T07:38:38.839Z,6.65
2023-03-17T07:41:09.942Z,6.72
2023-03-17T07:43:38.872Z,6.89
2023-03-17T07:46:08.533Z,6.97
2023-03-17T07:48:40.882Z,7.03
2023-03-17T07:51:11.364Z,6.99
2023-03-17T07:53:39.218Z,7.03
2023-03-17T07:56:07.579Z,7.18
2023-03-17T07:58:35.907Z,7.28
2023-03-17T08:01:05.025Z,7.21
2023-03-17T08:03:34.401Z,7.43
2023-03-17T08:06:03.787Z,7.51
2023-03-17T08:08:31.666Z,7.46
2023-03-17T08:11:03.628Z,7.61
2023-03-17T08:13:31.621Z,7.77
2023-03-17T08:15:59.436Z,7.86
2023-03-17T08:18:27.491Z,7.95
2023-03-17T08:20:56.636Z,7.90
2023-03-17T08:23:25.528Z,7.97
2023-03-17T08:25:57.973Z,7.98
2023-03-17T08:28:26.002Z,7.82
2023-03-17T08:30:54.417Z,7.54
2023-03-17T08:33:22.673Z,7.69
2023-03-17T08:35:50.930Z,7.73
2023-03-17T08:38:20.177Z,7.88
2023-03-17T08:40:50.102Z,7.94
2023-03-17T08:43:18.710Z,7.40
2023-03-17T08:45:46.619Z,7.37
2023-03-17T08:48:14.482Z,7.34
2023-03-17T08:50:42.276Z,7.36
2023-03-17T08:53:10.120Z,7.56
2023-03-17T08:55:39.928Z,7.65
2023-03-17T08:58:07.749Z,7.74
2023-03-17T09:00:36.013Z,7.69
2023-03-17T09:03:03.898Z,7.45
2023-03-17T09:05:32.163Z,7.45
2023-03-17T09:08:00.338Z,7.62
2023-03-17T09:10:29.152Z,7.54
2023-03-17T09:13:03.020Z,7.61
2023-03-17T09:15:31.290Z,7.79
2023-03-17T09:17:59.289Z,7.93
2023-03-17T09:20:33.941Z,8.02
2023-03-17T09:23:17.762Z,8.07
2023-03-17T09:25:46.214Z,8.08
2023-03-17T09:28:15.399Z,8.10
2023-03-17T09:30:43.746Z,8.20
2023-03-17T09:33:12.035Z,8.12
2023-03-17T09:35:41.254Z,8.05
2023-03-17T09:38:09.375Z,7.95
2023-03-17T09:40:39.568Z,7.99
2023-03-17T09:43:12.929Z,8.06
2023-03-17T09:45:43.764Z,8.11
2023-03-17T09:48:44.080Z,8.15
2023-03-17T09:51:13.079Z,8.35
2023-03-17T09:53:48.475Z,8.43
2023-03-17T09:56:17.850Z,8.56
2023-03-17T09:58:51.276Z,8.49
2023-03-17T10:01:20.815Z,8.44
2023-03-17T10:03:50.501Z,8.59
2023-03-17T10:06:29.357Z,8.60
2023-03-17T10:09:00.133Z,8.78
2023-03-17T10:11:36.480Z,8.92
2023-03-17T10:14:05.709Z,8.74
2023-03-17T10:16:42.608Z,8.56
2023-03-17T10:19:18.367Z,8.64
2023-03-17T10:21:54.605Z,8.72
2023-03-17T10:24:22.845Z,8.94
2023-03-17T10:26:53.294Z,9.20
2023-03-17T10:29:23.880Z,9.56
2023-03-17T10:31:57.053Z,9.62
2023-03-17T10:34:28.680Z,9.74
2023-03-17T10:37:00.956Z,9.72
2023-03-17T10:39:32.529Z,9.70
2023-03-17T10:42:04.263Z,9.88
2023-03-17T10:44:45.207Z,9.81
2023-03-17T10:47:28.565Z,9.73
2023-03-17T10:49:57.607Z,9.89
2023-03-17T10:52:28.676Z,10.02
2023-03-17T10:54:56.527Z,10.24
2023-03-17T10:57:24.551Z,10.35
2023-03-17T10:59:54.003Z,10.38
2023-03-17T11:02:27.471Z,10.50
2023-03-17T11:04:56.758Z,10.50
2023-03-17T11:07:29.470Z,10.53
2023-03-17T11:09:59.436Z,10.51
2023-03-17T11:12:29.172Z,10.32
2023-03-17T11:15:00.928Z,10.09
2023-03-17T11:17:51.590Z,10.16
2023-03-17T11:20:41.525Z,10.33
2023-03-17T11:23:16.334Z,10.56
2023-03-17T11:25:46.105Z,10.37
2023-03-17T11:28:19.968Z,10.44
2023-03-17T11:30:55.647Z,10.70
2023-03-17T11:33:34.851Z,10.94
2023-03-17T11:36:05.210Z,10.85
2023-03-17T11:38:37.030Z,11.03
2023-03-17T11:41:22.996Z,10.99
2023-03-17T11:44:01.767Z,10.74
2023-03-17T11:46:30.953Z,10.66
2023-03-17T11:49:06.777Z,10.93
2023-03-17T11:51:37.568Z,11.23
2023-03-17T11:54:10.691Z,11.37
2023-03-17T11:56:42.855Z,11.50
2023-03-17T11:59:21.822Z,11.24
2023-03-17T12:01:56.008Z,11.15
2023-03-17T12:04:30.225Z,10.94
2023-03-17T12:07:02.385Z,10.75
2023-03-17T12:09:33.749Z,10.58
2023-03-17T12:12:04.136Z,10.61
2023-03-17T12:14:35.046Z,10.72
2023-03-17T12:17:06.310Z,10.70
2023-03-17T12:19:42.449Z,10.70
2023-03-17T12:22:18.957Z,10.88
2023-03-17T12:24:50.337Z,10.90
2023-03-17T12:27:22.032Z,10.72
2023-03-17T12:29:53.421Z,10.77
2023-03-17T12:32:23.501Z,10.86
2023-03-17T12:34:57.098Z,10.78
2023-03-17T12:37:27.703Z,10.76
2023-03-17T12:40:00.719Z,10.94
2023-03-17T12:42:39.598Z,11.09
2023-03-17T12:45:46.029Z,11.13
2023-03-17T12:48:29.308Z,11.08
2023-03-17T12:51:10.803Z,11.24
2023-03-17T12:53:39.993Z,11.23
2023-03-17T12:56:19.345Z,11.24
2023-03-17T12:58:49.808Z,11.29
2023-03-17T13:01:24.492Z,11.26
2023-03-17T13:04:03.823Z,11.05
2023-03-17T13:06:39.827Z,10.89
2023-03-17T13:09:53.132Z,11.14
2023-03-17T13:12:57.128Z,11.29
2023-03-17T13:15:30.869Z,11.45
2023-03-17T13:18:38.289Z,11.40
2023-03-17T13:21:14.828Z,11.56
2023-03-17T13:23:45.868Z,11.65
2023-03-17T13:26:14.815Z,11.55
2023-03-17T13:28:45.690Z,11.65
2023-03-17T13:31:18.009Z,11.76
2023-03-17T13:33:47.428Z,11.74
2023-03-17T13:36:36.308Z,11.89
2023-03-17T13:39:38.848Z,11.88
2023-03-17T13:42:19.622Z,12.03
2023-03-17T13:45:03.114Z,12.08
2023-03-17T13:47:35.780Z,12.16
2023-03-17T13:50:09.294Z,12.26
2023-03-17T13:52:42.258Z,12.36
2023-03-17T13:55:41.188Z,12.36
2023-03-17T13:58:24.805Z,12.56
2023-03-17T14:00:58.780Z,12.51
2023-03-17T14:03:32.231Z,12.51
2023-03-17T14:06:02.586Z,12.41
2023-03-17T14:08:32.455Z,12.45
2023-03-17T14:11:03.768Z,12.32
2023-03-17T14:13:35.579Z,12.22
2023-03-17T14:16:08.319Z,12.17
2023-03-17T14:18:37.885Z,12.13
2023-03-17T14:21:11.676Z,12.01
2023-03-17T14:23:39.679Z,12.11
2023-03-17T14:26:12.096Z,12.08
2023-03-17T14:28:39.954Z,12.26
2023-03-17T14:31:08.975Z,12.12
2023-03-17T14:33:39.054Z,12.15
2023-03-17T14:36:09.013Z,12.21
2023-03-17T14:38:38.453Z,12.32
2023-03-17T14:41:16.645Z,12.33
2023-03-17T14:43:45.633Z,12.26
2023-03-17T14:46:16.638Z,12.35
2023-03-17T14:48:47.984Z,12.43
2023-03-17T14:51:28.745Z,12.38
2023-03-17T14:54:00.046Z,12.33
2023-03-17T14:56:33.735Z,12.36
2023-03-17T14:59:07.254Z,12.35
2023-03-17T15:01:36.478Z,12.30
2023-03-17T15:04:08.946Z,12.28
2023-03-17T15:06:37.607Z,12.24
2023-03-17T15:09:18.712Z,12.19
2023-03-17T15:11:48.798Z,12.17
2023-03-17T15:14:21.224Z,12.26
2023-03-17T15:16:50.974Z,12.30
2023-03-17T15:19:22.493Z,12.21
2023-03-17T15:21:51.017Z,12.17
2023-03-17T15:24:34.445Z,12.10
2023-03-17T15:27:05.791Z,12.27
2023-03-17T15:29:33.800Z,12.31
2023-03-17T15:32:07.382Z,12.36
2023-03-17T15:34:35.366Z,12.35
2023-03-17T15:37:03.173Z,12.22
2023-03-17T15:39:31.018Z,12.22
2023-03-17T15:41:58.841Z,12.25
2023-03-17T15:44:28.001Z,12.31
2023-03-17T15:46:55.819Z,12.15
2023-03-17T15:49:26.925Z,12.40
2023-03-17T15:51:54.889Z,12.42
2023-03-17T15:54:22.777Z,12.45
2023-03-17T15:56:50.931Z,12.41
2023-03-17T15:59:18.711Z,12.49
2023-03-17T16:01:48.157Z,12.54
2023-03-17T16:04:17.944Z,12.49
2023-03-17T16:06:47.941Z,12.45
2023-03-17T16:09:17.524Z,12.44
2023-03-17T16:11:45.372Z,12.50
2023-03-17T16:14:13.131Z,12.56
2023-03-17T16:16:42.936Z,12.58
2023-03-17T16:19:18.421Z,12.56
2023-03-17T16:21:46.266Z,12.47
2023-03-17T16:24:18.802Z,12.45
2023-03-17T16:26:46.627Z,12.40
2023-03-17T16:29:15.350Z,12.36
2023-03-17T16:31:43.425Z,12.19
2023-03-17T16:34:17.892Z,12.14
2023-03-17T16:36:45.878Z,12.07
2023-03-17T16:39:18.638Z,12.07
2023-03-17T16:41:47.729Z,12.00
2023-03-17T16:44:17.045Z,11.91
2023-03-17T16:46:46.166Z,11.89
2023-03-17T16:49:18.040Z,11.81
2023-03-17T16:51:46.053Z,11.81
2023-03-17T16:54:14.051Z,11.77
2023-03-17T16:56:42.773Z,11.69
2023-03-17T16:59:12.627Z,11.66
2023-03-17T17:01:40.537Z,11.63
2023-03-17T17:04:11.095Z,11.57
2023-03-17T17:06:40.282Z,11.53
2023-03-17T17:09:08.053Z,11.49
2023-03-17T17:11:35.858Z,11.48
2023-03-17T17:14:03.755Z,11.45
2023-03-17T17:16:35.978Z,11.30
2023-03-17T17:19:04.939Z,11.43
2023-03-17T17:21:33.978Z,11.44
2023-03-17T17:24:03.138Z,11.45
2023-03-17T17:26:30.944Z,11.46
2023-03-17T17:28:58.723Z,11.45
2023-03-17T17:31:26.568Z,11.42
2023-03-17T17:33:54.585Z,11.43
2023-03-17T17:36:22.479Z,11.42
2023-03-17T17:38:51.772Z,11.39
2023-03-17T17:41:21.870Z,11.39
2023-03-17T17:43:50.095Z,11.16
2023-03-17T17:46:20.883Z,11.33
2023-03-17T17:48:48.789Z,11.31
2023-03-17T17:51:16.690Z,11.07
2023-03-17T17:53:44.509Z,11.28
2023-03-17T17:56:14.787Z,11.23
2023-03-17T17:58:44.519Z,11.23
2023-03-17T18:01:14.074Z,11.17
2023-03-17T18:03:43.144Z,11.16
2023-03-17T18:06:11.720Z,11.16
2023-03-17T18:08:40.206Z,11.10
2023-03-17T18:11:08.451Z,11.06
2023-03-17T18:13:39.002Z,11.02
2023-03-17T18:16:10.812Z,10.98
2023-03-17T18:18:40.701Z,10.94
2023-03-17T18:21:08.494Z,10.90
2023-03-17T18:23:36.605Z,10.87
2023-03-17T18:26:06.034Z,10.81
2023-03-17T18:28:34.119Z,10.73
2023-03-17T18:31:05.564Z,10.72
2023-03-17T18:33:34.816Z,10.72
2023-03-17T18:36:05.904Z,10.73
2023-03-17T18:38:34.082Z,10.75
2023-03-17T18:41:02.404Z,10.77
2023-03-17T18:43:30.260Z,10.78
2023-03-17T18:45:58.307Z,10.80
2023-03-17T18:48:26.180Z,10.79
2023-03-17T18:50:55.528Z,10.81
2023-03-17T18:53:23.553Z,10.80
2023-03-17T18:55:51.350Z,10.85
2023-03-17T18:58:19.186Z,10.87
2023-03-17T19:00:47.286Z,10.87
2023-03-17T19:03:15.194Z,10.91
2023-03-17T19:05:43.010Z,10.91
2023-03-17T19:08:13.909Z,10.92
2023-03-17T19:10:43.942Z,10.93
2023-03-17T19:13:11.794Z,10.94
2023-03-17T19:15:39.606Z,10.95
2023-03-17T19:18:07.840Z,10.95
2023-03-17T19:20:36.590Z,10.94
2023-03-17T19:23:05.881Z,10.91
2023-03-17T19:25:36.009Z,10.89
2023-03-17T19:28:04.537Z,10.86
2023-03-17T19:30:32.515Z,10.80
2023-03-17T19:33:00.496Z,10.76
2023-03-17T19:35:28.357Z,10.77
2023-03-17T19:37:56.509Z,10.77
2023-03-17T19:40:24.375Z,10.77
2023-03-17T19:42:53.571Z,10.81
2023-03-17T19:45:21.644Z,10.90
2023-03-17T19:47:49.498Z,10.91
2023-03-17T19:50:17.697Z,10.92
2023-03-17T19:52:46.185Z,10.84
2023-03-17T19:55:14.028Z,10.96
2023-03-17T19:57:41.975Z,10.97
2023-03-17T20:00:12.974Z,10.89
2023-03-17T20:02:40.936Z,11.06
2023-03-17T20:05:09.304Z,11.08
2023-03-17T20:07:37.201Z,11.14
2023-03-17T20:10:06.598Z,11.08
2023-03-17T20:12:37.426Z,11.19
2023-03-17T20:15:06.931Z,11.23
2023-03-17T20:17:36.433Z,11.25
2023-03-17T20:20:04.915Z,11.26
2023-03-17T20:22:33.495Z,11.26
2023-03-17T20:25:01.449Z,11.24
2023-03-17T20:27:30.061Z,11.24
2023-03-17T20:29:58.725Z,11.24
2023-03-17T20:32:27.652Z,11.21
2023-03-17T20:34:56.940Z,11.23
2023-03-17T20:37:24.928Z,11.21
2023-03-17T20:39:54.297Z,11.23
2023-03-17T20:42:22.719Z,11.21
2023-03-17T20:44:53.006Z,11.16
2023-03-17T20:47:21.459Z,11.10
2023-03-17T20:49:50.647Z,11.04
2023-03-17T20:52:19.893Z,10.98
2023-03-17T20:54:47.712Z,10.89
2023-03-17T20:57:16.037Z,10.84
2023-03-17T20:59:45.231Z,10.74
2023-03-17T21:02:17.001Z,10.91
2023-03-17T21:04:47.663Z,10.90
2023-03-17T21:07:16.822Z,10.86
2023-03-17T21:09:46.878Z,10.83
2023-03-17T21:12:15.786Z,10.79
2023-03-17T21:14:44.192Z,10.74
2023-03-17T21:17:12.399Z,10.72
2023-03-17T21:19:40.585Z,10.67
2023-03-17T21:22:08.397Z,10.68
2023-03-17T21:24:39.768Z,10.64
2023-03-17T21:27:11.235Z,10.61
2023-03-17T21:29:39.785Z,10.63
2023-03-17T21:32:08.500Z,10.62
2023-03-17T21:34:37.161Z,10.63
2023-03-17T21:37:05.428Z,10.58
2023-03-17T21:39:34.121Z,10.58
2023-03-17T21:42:02.031Z,10.59
2023-03-17T21:44:32.419Z,10.59
2023-03-17T21:47:02.580Z,10.57
2023-03-17T21:49:30.394Z,10.56
2023-03-17T21:51:59.095Z,10.51
2023-03-17T21:54:26.896Z,10.50
2023-03-17T21:56:54.795Z,10.49
2023-03-17T21:59:22.646Z,10.48
2023-03-17T22:01:53.035Z,10.42
2023-03-17T22:04:21.271Z,10.39
2023-03-17T22:06:49.170Z,10.38
2023-03-17T22:09:19.115Z,10.35
2023-03-17T22:11:47.134Z,10.32
2023-03-17T22:14:19.850Z,10.31
2023-03-17T22:16:48.461Z,10.29
2023-03-17T22:19:21.016Z,10.24
2023-03-17T22:21:49.151Z,10.26
2023-03-17T22:24:17.362Z,10.27
2023-03-17T22:26:45.260Z,10.27
2023-03-17T22:29:13.576Z,10.21
2023-03-17T22:31:41.470Z,10.27
2023-03-17T22:34:09.960Z,10.25
2023-03-17T22:36:39.134Z,10.33
2023-03-17T22:39:08.832Z,10.38
2023-03-17T22:41:36.688Z,10.41
2023-03-17T22:44:05.098Z,10.41
2023-03-17T22:46:32.896Z,10.39
2023-03-17T22:49:00.698Z,10.38
2023-03-17T22:51:28.532Z,10.44
2023-03-17T22:53:57.773Z,10.51
2023-03-17T22:56:26.186Z,10.50
2023-03-17T22:58:54.682Z,10.55
2023-03-17T23:01:25.691Z,10.61
2023-03-17T23:03:54.200Z,10.69
2023-03-17T23:06:22.517Z,10.71
2023-03-17T23:08:50.539Z,10.75
2023-03-17T23:11:21.258Z,10.73
2023-03-17T23:13:50.499Z,10.77
2023-03-17T23:16:18.997Z,10.75
2023-03-17T23:18:47.225Z,10.74
2023-03-17T23:21:21.241Z,10.72
2023-03-17T23:23:49.522Z,10.68
2023-03-17T23:26:19.059Z,10.66
2023-03-17T23:28:47.657Z,10.62
2023-03-17T23:31:15.977Z,10.57
2023-03-17T23:33:44.062Z,10.54
2023-03-17T23:36:14.096Z,10.48
2023-03-17T23:38:42.632Z,10.45
2023-03-17T23:41:10.668Z,10.41
2023-03-17T23:43:39.902Z,10.35
2023-03-17T23:46:08.371Z,10.31
2023-03-17T23:48:36.441Z,10.28
2023-03-17T23:51:04.616Z,10.23
2023-03-17T23:53:33.019Z,10.13
2023-03-17T23:56:00.888Z,10.08
2023-03-17T23:58:28.658Z,10.06
